sensor_id;sensor_type;location;lat;lon;timestamp;P1;durP1;ratioP1;P2;durP2;ratioP2
51122;SDS011;37162;41.724;13.346;2023-07-13T00:01:18;2.00;;;1.02;;
51122;SDS011;37162;41.724;13.346;2023-07-13T00:03:44;4.20;;;0.85;;
51122;SDS011;37162;41.724;13.346;2023-07-13T00:06:09;0.98;;;0.98;;
51122;SDS011;37162;41.724;13.346;2023-07-13T00:08:35;5.88;;;1.33;;
51122;SDS011;37162;41.724;13.346;2023-07-13T00:11:01;4.00;;;1.27;;
51122;SDS011;37162;41.724;13.346;2023-07-13T00:13:27;1.98;;;1.15;;
51122;SDS011;37162;41.724;13.346;2023-07-13T00:15:54;1.60;;;1.05;;
51122;SDS011;37162;41.724;13.346;2023-07-13T00:18:21;2.95;;;1.00;;
51122;SDS011;37162;41.724;13.346;2023-07-13T00:20:47;1.23;;;1.13;;
51122;SDS011;37162;41.724;13.346;2023-07-13T00:23:13;3.95;;;1.17;;
51122;SDS011;37162;41.724;13.346;2023-07-13T00:25:38;0.70;;;0.70;;
51122;SDS011;37162;41.724;13.346;2023-07-13T00:28:04;1.20;;;0.88;;
51122;SDS011;37162;41.724;13.346;2023-07-13T00:30:29;0.80;;;0.80;;
51122;SDS011;37162;41.724;13.346;2023-07-13T00:32:55;3.47;;;0.90;;
51122;SDS011;37162;41.724;13.346;2023-07-13T00:35:20;1.00;;;0.88;;
51122;SDS011;37162;41.724;13.346;2023-07-13T00:37:46;0.90;;;0.90;;
51122;SDS011;37162;41.724;13.346;2023-07-13T00:40:12;1.25;;;1.00;;
51122;SDS011;37162;41.724;13.346;2023-07-13T00:42:39;0.93;;;0.90;;
51122;SDS011;37162;41.724;13.346;2023-07-13T00:47:38;1.10;;;1.00;;
51122;SDS011;37162;41.724;13.346;2023-07-13T00:50:07;1.52;;;1.40;;
51122;SDS011;37162;41.724;13.346;2023-07-13T00:52:36;1.30;;;1.20;;
51122;SDS011;37162;41.724;13.346;2023-07-13T00:55:03;5.90;;;1.05;;
51122;SDS011;37162;41.724;13.346;2023-07-13T00:57:29;0.80;;;0.80;;
51122;SDS011;37162;41.724;13.346;2023-07-13T00:59:55;1.30;;;1.20;;
51122;SDS011;37162;41.724;13.346;2023-07-13T01:02:24;1.92;;;1.10;;
51122;SDS011;37162;41.724;13.346;2023-07-13T01:04:51;0.77;;;0.77;;
51122;SDS011;37162;41.724;13.346;2023-07-13T01:07:16;2.58;;;0.85;;
51122;SDS011;37162;41.724;13.346;2023-07-13T01:09:44;2.47;;;1.25;;
51122;SDS011;37162;41.724;13.346;2023-07-13T01:12:10;3.45;;;0.90;;
51122;SDS011;37162;41.724;13.346;2023-07-13T01:14:36;1.10;;;1.00;;
51122;SDS011;37162;41.724;13.346;2023-07-13T01:17:02;3.60;;;1.25;;
51122;SDS011;37162;41.724;13.346;2023-07-13T01:22:11;0.80;;;0.70;;
51122;SDS011;37162;41.724;13.346;2023-07-13T01:24:39;2.88;;;0.95;;
51122;SDS011;37162;41.724;13.346;2023-07-13T01:27:08;0.75;;;0.75;;
51122;SDS011;37162;41.724;13.346;2023-07-13T01:29:35;5.47;;;0.68;;
51122;SDS011;37162;41.724;13.346;2023-07-13T01:32:07;1.23;;;1.13;;
51122;SDS011;37162;41.724;13.346;2023-07-13T01:34:36;1.63;;;1.05;;
51122;SDS011;37162;41.724;13.346;2023-07-13T01:37:02;1.20;;;1.10;;
51122;SDS011;37162;41.724;13.346;2023-07-13T01:39:29;1.48;;;1.10;;
51122;SDS011;37162;41.724;13.346;2023-07-13T01:41:54;0.85;;;0.85;;
51122;SDS011;37162;41.724;13.346;2023-07-13T01:44:20;0.85;;;0.70;;
51122;SDS011;37162;41.724;13.346;2023-07-13T01:46:45;2.40;;;1.00;;
51122;SDS011;37162;41.724;13.346;2023-07-13T01:49:11;0.77;;;0.77;;
51122;SDS011;37162;41.724;13.346;2023-07-13T01:51:36;1.95;;;1.25;;
51122;SDS011;37162;41.724;13.346;2023-07-13T01:54:02;1.70;;;0.70;;
51122;SDS011;37162;41.724;13.346;2023-07-13T01:56:27;0.95;;;0.88;;
51122;SDS011;37162;41.724;13.346;2023-07-13T01:58:53;1.00;;;0.88;;
51122;SDS011;37162;41.724;13.346;2023-07-13T02:01:18;1.17;;;1.00;;
51122;SDS011;37162;41.724;13.346;2023-07-13T02:03:43;0.98;;;0.93;;
51122;SDS011;37162;41.724;13.346;2023-07-13T02:06:09;2.50;;;0.95;;
51122;SDS011;37162;41.724;13.346;2023-07-13T02:08:34;1.88;;;1.00;;
51122;SDS011;37162;41.724;13.346;2023-07-13T02:11:00;1.83;;;0.90;;
51122;SDS011;37162;41.724;13.346;2023-07-13T02:13:27;1.02;;;0.85;;
51122;SDS011;37162;41.724;13.346;2023-07-13T02:15:53;1.48;;;0.93;;
51122;SDS011;37162;41.724;13.346;2023-07-13T02:18:18;2.65;;;0.88;;
51122;SDS011;37162;41.724;13.346;2023-07-13T02:20:44;0.77;;;0.77;;
51122;SDS011;37162;41.724;13.346;2023-07-13T02:23:10;2.55;;;0.90;;
51122;SDS011;37162;41.724;13.346;2023-07-13T02:25:35;1.67;;;0.90;;
51122;SDS011;37162;41.724;13.346;2023-07-13T02:28:01;1.10;;;0.95;;
51122;SDS011;37162;41.724;13.346;2023-07-13T02:30:26;1.30;;;1.20;;
51122;SDS011;37162;41.724;13.346;2023-07-13T02:32:54;1.33;;;1.00;;
51122;SDS011;37162;41.724;13.346;2023-07-13T02:35:23;0.90;;;0.90;;
51122;SDS011;37162;41.724;13.346;2023-07-13T02:37:48;0.80;;;0.80;;
51122;SDS011;37162;41.724;13.346;2023-07-13T02:40:14;2.03;;;0.80;;
51122;SDS011;37162;41.724;13.346;2023-07-13T02:42:40;2.65;;;1.00;;
51122;SDS011;37162;41.724;13.346;2023-07-13T02:45:07;0.80;;;0.80;;
51122;SDS011;37162;41.724;13.346;2023-07-13T02:47:33;2.03;;;0.95;;
51122;SDS011;37162;41.724;13.346;2023-07-13T02:49:59;1.77;;;1.20;;
51122;SDS011;37162;41.724;13.346;2023-07-13T02:52:25;2.80;;;1.35;;
51122;SDS011;37162;41.724;13.346;2023-07-13T02:54:51;0.95;;;0.93;;
51122;SDS011;37162;41.724;13.346;2023-07-13T02:57:17;5.85;;;0.80;;
51122;SDS011;37162;41.724;13.346;2023-07-13T02:59:42;2.03;;;0.82;;
51122;SDS011;37162;41.724;13.346;2023-07-13T03:02:08;1.13;;;0.75;;
51122;SDS011;37162;41.724;13.346;2023-07-13T03:04:35;0.80;;;0.80;;
51122;SDS011;37162;41.724;13.346;2023-07-13T03:07:01;0.82;;;0.60;;
51122;SDS011;37162;41.724;13.346;2023-07-13T03:09:27;0.90;;;0.90;;
51122;SDS011;37162;41.724;13.346;2023-07-13T03:11:55;1.70;;;0.90;;
51122;SDS011;37162;41.724;13.346;2023-07-13T03:14:21;0.98;;;0.90;;
51122;SDS011;37162;41.724;13.346;2023-07-13T03:16:47;1.65;;;1.00;;
51122;SDS011;37162;41.724;13.346;2023-07-13T03:19:13;0.93;;;0.90;;
51122;SDS011;37162;41.724;13.346;2023-07-13T03:21:39;1.10;;;0.60;;
51122;SDS011;37162;41.724;13.346;2023-07-13T03:24:04;0.82;;;0.82;;
51122;SDS011;37162;41.724;13.346;2023-07-13T03:26:30;1.40;;;1.30;;
51122;SDS011;37162;41.724;13.346;2023-07-13T03:28:56;1.52;;;0.88;;
51122;SDS011;37162;41.724;13.346;2023-07-13T03:31:24;1.60;;;0.88;;
51122;SDS011;37162;41.724;13.346;2023-07-13T03:33:51;1.08;;;0.98;;
51122;SDS011;37162;41.724;13.346;2023-07-13T03:36:18;3.13;;;0.88;;
51122;SDS011;37162;41.724;13.346;2023-07-13T03:38:48;2.95;;;1.20;;
51122;SDS011;37162;41.724;13.346;2023-07-13T03:41:15;2.72;;;0.80;;
51122;SDS011;37162;41.724;13.346;2023-07-13T03:43:41;1.00;;;0.90;;
51122;SDS011;37162;41.724;13.346;2023-07-13T03:46:07;0.60;;;0.60;;
51122;SDS011;37162;41.724;13.346;2023-07-13T03:48:33;0.77;;;0.70;;
51122;SDS011;37162;41.724;13.346;2023-07-13T03:50:59;1.13;;;0.70;;
51122;SDS011;37162;41.724;13.346;2023-07-13T03:53:25;0.93;;;0.70;;
51122;SDS011;37162;41.724;13.346;2023-07-13T03:55:50;0.80;;;0.80;;
51122;SDS011;37162;41.724;13.346;2023-07-13T04:00:54;2.97;;;0.88;;
51122;SDS011;37162;41.724;13.346;2023-07-13T04:03:20;1.35;;;0.93;;
51122;SDS011;37162;41.724;13.346;2023-07-13T04:05:46;2.20;;;1.10;;
51122;SDS011;37162;41.724;13.346;2023-07-13T04:08:11;1.55;;;1.00;;
51122;SDS011;37162;41.724;13.346;2023-07-13T04:10:37;2.40;;;0.75;;
51122;SDS011;37162;41.724;13.346;2023-07-13T04:13:03;2.92;;;0.90;;
51122;SDS011;37162;41.724;13.346;2023-07-13T04:15:30;1.80;;;0.82;;
51122;SDS011;37162;41.724;13.346;2023-07-13T04:17:55;2.25;;;0.85;;
51122;SDS011;37162;41.724;13.346;2023-07-13T04:20:22;1.00;;;0.90;;
51122;SDS011;37162;41.724;13.346;2023-07-13T04:22:47;0.73;;;0.70;;
51122;SDS011;37162;41.724;13.346;2023-07-13T04:25:13;0.93;;;0.80;;
51122;SDS011;37162;41.724;13.346;2023-07-13T04:27:38;1.15;;;0.80;;
51122;SDS011;37162;41.724;13.346;2023-07-13T04:30:05;1.00;;;0.93;;
51122;SDS011;37162;41.724;13.346;2023-07-13T04:32:31;3.05;;;0.93;;
51122;SDS011;37162;41.724;13.346;2023-07-13T04:34:57;0.77;;;0.77;;
51122;SDS011;37162;41.724;13.346;2023-07-13T04:37:24;1.77;;;0.85;;
51122;SDS011;37162;41.724;13.346;2023-07-13T04:39:50;0.85;;;0.80;;
51122;SDS011;37162;41.724;13.346;2023-07-13T04:42:15;1.17;;;0.98;;
51122;SDS011;37162;41.724;13.346;2023-07-13T04:44:41;3.42;;;0.90;;
51122;SDS011;37162;41.724;13.346;2023-07-13T04:47:07;2.05;;;0.85;;
51122;SDS011;37162;41.724;13.346;2023-07-13T04:49:32;0.73;;;0.70;;
51122;SDS011;37162;41.724;13.346;2023-07-13T04:51:58;0.82;;;0.82;;
51122;SDS011;37162;41.724;13.346;2023-07-13T04:54:23;2.85;;;1.20;;
51122;SDS011;37162;41.724;13.346;2023-07-13T04:56:49;1.30;;;1.20;;
51122;SDS011;37162;41.724;13.346;2023-07-13T04:59:14;0.80;;;0.80;;
51122;SDS011;37162;41.724;13.346;2023-07-13T05:01:39;2.50;;;0.57;;
51122;SDS011;37162;41.724;13.346;2023-07-13T05:04:05;0.70;;;0.70;;
51122;SDS011;37162;41.724;13.346;2023-07-13T05:06:31;0.77;;;0.77;;
51122;SDS011;37162;41.724;13.346;2023-07-13T05:08:57;1.45;;;1.00;;
51122;SDS011;37162;41.724;13.346;2023-07-13T05:11:22;2.55;;;0.95;;
51122;SDS011;37162;41.724;13.346;2023-07-13T05:13:47;1.42;;;0.98;;
51122;SDS011;37162;41.724;13.346;2023-07-13T05:16:13;2.08;;;1.10;;
51122;SDS011;37162;41.724;13.346;2023-07-13T05:18:38;1.08;;;0.95;;
51122;SDS011;37162;41.724;13.346;2023-07-13T05:21:08;1.40;;;1.10;;
51122;SDS011;37162;41.724;13.346;2023-07-13T05:23:36;2.45;;;1.13;;
51122;SDS011;37162;41.724;13.346;2023-07-13T05:26:02;1.75;;;1.13;;
51122;SDS011;37162;41.724;13.346;2023-07-13T05:28:29;2.20;;;1.20;;
51122;SDS011;37162;41.724;13.346;2023-07-13T05:30:56;3.78;;;1.48;;
51122;SDS011;37162;41.724;13.346;2023-07-13T05:33:22;1.17;;;0.80;;
51122;SDS011;37162;41.724;13.346;2023-07-13T05:35:48;1.95;;;0.95;;
51122;SDS011;37162;41.724;13.346;2023-07-13T05:38:13;1.30;;;1.02;;
51122;SDS011;37162;41.724;13.346;2023-07-13T05:40:39;1.30;;;1.20;;
51122;SDS011;37162;41.724;13.346;2023-07-13T05:43:04;0.90;;;0.85;;
51122;SDS011;37162;41.724;13.346;2023-07-13T05:45:30;1.40;;;1.00;;
51122;SDS011;37162;41.724;13.346;2023-07-13T05:47:55;2.70;;;1.40;;
51122;SDS011;37162;41.724;13.346;2023-07-13T05:50:21;0.80;;;0.80;;
51122;SDS011;37162;41.724;13.346;2023-07-13T05:52:46;1.02;;;0.80;;
51122;SDS011;37162;41.724;13.346;2023-07-13T05:55:12;3.25;;;0.80;;
51122;SDS011;37162;41.724;13.346;2023-07-13T05:57:38;1.30;;;1.20;;
51122;SDS011;37162;41.724;13.346;2023-07-13T06:00:03;1.30;;;1.10;;
51122;SDS011;37162;41.724;13.346;2023-07-13T06:02:29;1.15;;;0.98;;
51122;SDS011;37162;41.724;13.346;2023-07-13T06:04:55;1.88;;;0.77;;
51122;SDS011;37162;41.724;13.346;2023-07-13T06:07:20;1.15;;;1.08;;
51122;SDS011;37162;41.724;13.346;2023-07-13T06:09:46;4.20;;;1.30;;
51122;SDS011;37162;41.724;13.346;2023-07-13T06:12:11;1.75;;;1.27;;
51122;SDS011;37162;41.724;13.346;2023-07-13T06:14:37;1.23;;;1.10;;
51122;SDS011;37162;41.724;13.346;2023-07-13T06:17:02;1.45;;;1.25;;
51122;SDS011;37162;41.724;13.346;2023-07-13T06:19:28;1.38;;;1.10;;
51122;SDS011;37162;41.724;13.346;2023-07-13T06:21:54;2.70;;;1.02;;
51122;SDS011;37162;41.724;13.346;2023-07-13T06:24:19;3.33;;;1.10;;
51122;SDS011;37162;41.724;13.346;2023-07-13T06:26:45;1.58;;;1.17;;
51122;SDS011;37162;41.724;13.346;2023-07-13T06:29:10;2.20;;;1.30;;
51122;SDS011;37162;41.724;13.346;2023-07-13T06:31:36;3.35;;;1.20;;
51122;SDS011;37162;41.724;13.346;2023-07-13T06:34:01;1.20;;;1.10;;
51122;SDS011;37162;41.724;13.346;2023-07-13T06:36:26;3.33;;;1.30;;
51122;SDS011;37162;41.724;13.346;2023-07-13T06:38:52;1.48;;;1.25;;
51122;SDS011;37162;41.724;13.346;2023-07-13T06:41:17;1.58;;;1.40;;
51122;SDS011;37162;41.724;13.346;2023-07-13T06:43:43;3.70;;;1.40;;
51122;SDS011;37162;41.724;13.346;2023-07-13T06:46:08;1.10;;;1.00;;
51122;SDS011;37162;41.724;13.346;2023-07-13T06:48:34;0.82;;;0.80;;
51122;SDS011;37162;41.724;13.346;2023-07-13T06:51:01;1.88;;;1.25;;
51122;SDS011;37162;41.724;13.346;2023-07-13T06:53:27;1.73;;;1.30;;
51122;SDS011;37162;41.724;13.346;2023-07-13T06:55:52;1.92;;;1.02;;
51122;SDS011;37162;41.724;13.346;2023-07-13T06:58:18;2.10;;;1.67;;
51122;SDS011;37162;41.724;13.346;2023-07-13T07:00:44;1.65;;;1.05;;
51122;SDS011;37162;41.724;13.346;2023-07-13T07:03:11;1.20;;;1.10;;
51122;SDS011;37162;41.724;13.346;2023-07-13T07:05:36;2.13;;;1.20;;
51122;SDS011;37162;41.724;13.346;2023-07-13T07:08:02;1.85;;;1.17;;
51122;SDS011;37162;41.724;13.346;2023-07-13T07:10:28;2.15;;;1.20;;
51122;SDS011;37162;41.724;13.346;2023-07-13T07:12:55;2.70;;;1.35;;
51122;SDS011;37162;41.724;13.346;2023-07-13T07:15:20;1.40;;;1.20;;
51122;SDS011;37162;41.724;13.346;2023-07-13T07:17:45;3.35;;;1.40;;
51122;SDS011;37162;41.724;13.346;2023-07-13T07:20:11;3.60;;;1.08;;
51122;SDS011;37162;41.724;13.346;2023-07-13T07:22:37;1.20;;;1.10;;
51122;SDS011;37162;41.724;13.346;2023-07-13T07:25:02;1.48;;;1.38;;
51122;SDS011;37162;41.724;13.346;2023-07-13T07:27:28;2.47;;;1.17;;
51122;SDS011;37162;41.724;13.346;2023-07-13T07:29:53;2.45;;;1.77;;
51122;SDS011;37162;41.724;13.346;2023-07-13T07:32:19;1.60;;;1.20;;
51122;SDS011;37162;41.724;13.346;2023-07-13T07:34:45;2.10;;;1.05;;
51122;SDS011;37162;41.724;13.346;2023-07-13T07:37:11;1.92;;;1.40;;
51122;SDS011;37162;41.724;13.346;2023-07-13T07:39:38;3.03;;;1.20;;
51122;SDS011;37162;41.724;13.346;2023-07-13T07:42:04;2.72;;;1.13;;
51122;SDS011;37162;41.724;13.346;2023-07-13T07:44:32;1.67;;;1.08;;
51122;SDS011;37162;41.724;13.346;2023-07-13T07:46:59;2.33;;;1.50;;
51122;SDS011;37162;41.724;13.346;2023-07-13T07:49:24;2.28;;;1.35;;
51122;SDS011;37162;41.724;13.346;2023-07-13T07:51:50;3.50;;;1.92;;
51122;SDS011;37162;41.724;13.346;2023-07-13T07:54:16;3.28;;;1.42;;
51122;SDS011;37162;41.724;13.346;2023-07-13T07:56:42;1.90;;;1.38;;
51122;SDS011;37162;41.724;13.346;2023-07-13T07:59:07;1.85;;;1.40;;
51122;SDS011;37162;41.724;13.346;2023-07-13T08:01:33;2.63;;;1.50;;
51122;SDS011;37162;41.724;13.346;2023-07-13T08:03:58;3.47;;;1.77;;
51122;SDS011;37162;41.724;13.346;2023-07-13T08:06:23;2.42;;;1.20;;
51122;SDS011;37162;41.724;13.346;2023-07-13T08:08:49;3.80;;;1.50;;
51122;SDS011;37162;41.724;13.346;2023-07-13T08:11:15;2.83;;;1.70;;
51122;SDS011;37162;41.724;13.346;2023-07-13T08:13:40;2.60;;;1.40;;
51122;SDS011;37162;41.724;13.346;2023-07-13T08:16:06;2.55;;;1.70;;
51122;SDS011;37162;41.724;13.346;2023-07-13T08:18:32;3.03;;;1.30;;
51122;SDS011;37162;41.724;13.346;2023-07-13T08:20:57;2.88;;;1.58;;
51122;SDS011;37162;41.724;13.346;2023-07-13T08:23:24;3.47;;;2.30;;
51122;SDS011;37162;41.724;13.346;2023-07-13T08:25:53;2.33;;;1.42;;
51122;SDS011;37162;41.724;13.346;2023-07-13T08:28:23;2.78;;;1.70;;
51122;SDS011;37162;41.724;13.346;2023-07-13T08:30:48;4.20;;;1.70;;
51122;SDS011;37162;41.724;13.346;2023-07-13T08:33:17;3.85;;;1.40;;
51122;SDS011;37162;41.724;13.346;2023-07-13T08:35:47;3.05;;;1.73;;
51122;SDS011;37162;41.724;13.346;2023-07-13T08:38:13;2.85;;;1.60;;
51122;SDS011;37162;41.724;13.346;2023-07-13T08:40:39;3.65;;;1.70;;
51122;SDS011;37162;41.724;13.346;2023-07-13T08:43:06;3.15;;;1.95;;
51122;SDS011;37162;41.724;13.346;2023-07-13T08:48:25;3.30;;;1.70;;
51122;SDS011;37162;41.724;13.346;2023-07-13T08:51:07;2.90;;;2.05;;
51122;SDS011;37162;41.724;13.346;2023-07-13T08:53:46;2.58;;;1.80;;
51122;SDS011;37162;41.724;13.346;2023-07-13T08:56:21;2.72;;;1.90;;
51122;SDS011;37162;41.724;13.346;2023-07-13T08:59:05;4.95;;;2.15;;
51122;SDS011;37162;41.724;13.346;2023-07-13T09:04:48;7.78;;;2.67;;
51122;SDS011;37162;41.724;13.346;2023-07-13T09:15:30;6.60;;;2.45;;
51122;SDS011;37162;41.724;13.346;2023-07-13T09:18:42;5.00;;;2.42;;
51122;SDS011;37162;41.724;13.346;2023-07-13T09:20:54;3.28;;;2.17;;
51122;SDS011;37162;41.724;13.346;2023-07-13T09:23:27;2.80;;;1.98;;
51122;SDS011;37162;41.724;13.346;2023-07-13T09:25:58;4.38;;;2.40;;
51122;SDS011;37162;41.724;13.346;2023-07-13T09:28:28;2.80;;;2.30;;
51122;SDS011;37162;41.724;13.346;2023-07-13T09:33:28;2.33;;;2.08;;
51122;SDS011;37162;41.724;13.346;2023-07-13T09:35:56;8.93;;;2.83;;
51122;SDS011;37162;41.724;13.346;2023-07-13T09:38:27;3.35;;;2.10;;
51122;SDS011;37162;41.724;13.346;2023-07-13T09:46:34;2.60;;;2.00;;
51122;SDS011;37162;41.724;13.346;2023-07-13T09:48:59;4.63;;;2.50;;
51122;SDS011;37162;41.724;13.346;2023-07-13T09:51:25;2.90;;;2.10;;
51122;SDS011;37162;41.724;13.346;2023-07-13T09:53:50;3.17;;;2.20;;
51122;SDS011;37162;41.724;13.346;2023-07-13T09:56:23;5.80;;;2.28;;
51122;SDS011;37162;41.724;13.346;2023-07-13T09:58:51;3.35;;;2.00;;
51122;SDS011;37162;41.724;13.346;2023-07-13T10:01:30;4.00;;;2.30;;
51122;SDS011;37162;41.724;13.346;2023-07-13T10:03:58;5.60;;;2.50;;
51122;SDS011;37162;41.724;13.346;2023-07-13T10:06:24;5.05;;;1.80;;
51122;SDS011;37162;41.724;13.346;2023-07-13T10:08:51;2.88;;;1.83;;
51122;SDS011;37162;41.724;13.346;2023-07-13T10:11:27;3.75;;;2.17;;
51122;SDS011;37162;41.724;13.346;2023-07-13T10:13:55;2.90;;;2.08;;
51122;SDS011;37162;41.724;13.346;2023-07-13T10:16:26;2.38;;;1.70;;
51122;SDS011;37162;41.724;13.346;2023-07-13T10:18:58;5.30;;;2.40;;
51122;SDS011;37162;41.724;13.346;2023-07-13T10:21:28;3.80;;;2.67;;
51122;SDS011;37162;41.724;13.346;2023-07-13T10:24:10;3.33;;;2.28;;
51122;SDS011;37162;41.724;13.346;2023-07-13T10:26:52;4.10;;;2.30;;
51122;SDS011;37162;41.724;13.346;2023-07-13T10:29:22;2.85;;;1.98;;
51122;SDS011;37162;41.724;13.346;2023-07-13T10:31:50;4.07;;;2.50;;
51122;SDS011;37162;41.724;13.346;2023-07-13T10:34:16;4.55;;;1.95;;
51122;SDS011;37162;41.724;13.346;2023-07-13T10:36:43;4.80;;;2.40;;
51122;SDS011;37162;41.724;13.346;2023-07-13T10:39:15;2.05;;;1.77;;
51122;SDS011;37162;41.724;13.346;2023-07-13T10:41:50;3.88;;;1.90;;
51122;SDS011;37162;41.724;13.346;2023-07-13T10:44:28;6.83;;;2.23;;
51122;SDS011;37162;41.724;13.346;2023-07-13T10:46:56;4.03;;;1.92;;
51122;SDS011;37162;41.724;13.346;2023-07-13T10:49:26;3.70;;;2.65;;
51122;SDS011;37162;41.724;13.346;2023-07-13T10:51:53;6.88;;;1.98;;
51122;SDS011;37162;41.724;13.346;2023-07-13T10:54:32;3.03;;;2.08;;
51122;SDS011;37162;41.724;13.346;2023-07-13T10:59:41;4.93;;;2.13;;
51122;SDS011;37162;41.724;13.346;2023-07-13T11:04:51;3.22;;;1.70;;
51122;SDS011;37162;41.724;13.346;2023-07-13T11:07:19;4.07;;;1.83;;
51122;SDS011;37162;41.724;13.346;2023-07-13T11:09:51;3.33;;;2.15;;
51122;SDS011;37162;41.724;13.346;2023-07-13T11:19:53;3.17;;;1.90;;
51122;SDS011;37162;41.724;13.346;2023-07-13T11:22:24;4.95;;;1.80;;
51122;SDS011;37162;41.724;13.346;2023-07-13T11:25:20;2.08;;;1.60;;
51122;SDS011;37162;41.724;13.346;2023-07-13T11:27:52;2.00;;;1.67;;
51122;SDS011;37162;41.724;13.346;2023-07-13T11:38:17;2.72;;;1.80;;
51122;SDS011;37162;41.724;13.346;2023-07-13T11:40:47;2.75;;;1.92;;
51122;SDS011;37162;41.724;13.346;2023-07-13T11:43:15;2.17;;;1.65;;
51122;SDS011;37162;41.724;13.346;2023-07-13T11:45:42;2.05;;;1.75;;
51122;SDS011;37162;41.724;13.346;2023-07-13T11:48:28;2.22;;;1.52;;
51122;SDS011;37162;41.724;13.346;2023-07-13T11:53:33;3.38;;;1.88;;
51122;SDS011;37162;41.724;13.346;2023-07-13T11:56:05;1.90;;;1.70;;
51122;SDS011;37162;41.724;13.346;2023-07-13T11:58:31;2.65;;;1.73;;
51122;SDS011;37162;41.724;13.346;2023-07-13T12:00:59;3.35;;;2.20;;
51122;SDS011;37162;41.724;13.346;2023-07-13T12:03:29;2.88;;;1.77;;
51122;SDS011;37162;41.724;13.346;2023-07-13T12:06:01;3.22;;;1.60;;
51122;SDS011;37162;41.724;13.346;2023-07-13T12:08:30;2.10;;;1.85;;
51122;SDS011;37162;41.724;13.346;2023-07-13T12:10:58;3.67;;;2.03;;
51122;SDS011;37162;41.724;13.346;2023-07-13T12:13:26;2.17;;;1.45;;
51122;SDS011;37162;41.724;13.346;2023-07-13T12:15:53;2.30;;;1.50;;
51122;SDS011;37162;41.724;13.346;2023-07-13T12:18:22;2.10;;;1.75;;
51122;SDS011;37162;41.724;13.346;2023-07-13T12:20:49;2.80;;;1.75;;
51122;SDS011;37162;41.724;13.346;2023-07-13T12:25:51;2.00;;;1.52;;
51122;SDS011;37162;41.724;13.346;2023-07-13T12:28:30;1.90;;;1.58;;
51122;SDS011;37162;41.724;13.346;2023-07-13T12:31:02;2.08;;;1.80;;
51122;SDS011;37162;41.724;13.346;2023-07-13T12:33:29;2.90;;;1.75;;
51122;SDS011;37162;41.724;13.346;2023-07-13T12:35:57;2.00;;;1.80;;
51122;SDS011;37162;41.724;13.346;2023-07-13T12:38:27;3.97;;;1.60;;
51122;SDS011;37162;41.724;13.346;2023-07-13T12:40:53;1.77;;;1.55;;
51122;SDS011;37162;41.724;13.346;2023-07-13T12:43:22;1.77;;;1.45;;
51122;SDS011;37162;41.724;13.346;2023-07-13T12:45:55;2.47;;;2.03;;
51122;SDS011;37162;41.724;13.346;2023-07-13T12:48:23;2.90;;;1.50;;
51122;SDS011;37162;41.724;13.346;2023-07-13T12:50:49;3.50;;;1.80;;
51122;SDS011;37162;41.724;13.346;2023-07-13T12:53:22;2.70;;;1.88;;
51122;SDS011;37162;41.724;13.346;2023-07-13T12:55:54;2.50;;;1.60;;
51122;SDS011;37162;41.724;13.346;2023-07-13T13:01:10;3.25;;;1.60;;
51122;SDS011;37162;41.724;13.346;2023-07-13T13:03:45;3.65;;;1.90;;
51122;SDS011;37162;41.724;13.346;2023-07-13T13:08:51;2.25;;;1.92;;
51122;SDS011;37162;41.724;13.346;2023-07-13T13:11:18;2.17;;;1.65;;
51122;SDS011;37162;41.724;13.346;2023-07-13T13:13:45;2.55;;;1.80;;
51122;SDS011;37162;41.724;13.346;2023-07-13T13:16:21;3.00;;;1.73;;
51122;SDS011;37162;41.724;13.346;2023-07-13T13:18:49;3.47;;;1.65;;
51122;SDS011;37162;41.724;13.346;2023-07-13T13:21:16;2.63;;;1.63;;
51122;SDS011;37162;41.724;13.346;2023-07-13T13:23:43;1.75;;;1.50;;
51122;SDS011;37162;41.724;13.346;2023-07-13T13:26:15;3.05;;;1.77;;
51122;SDS011;37162;41.724;13.346;2023-07-13T13:28:41;1.77;;;1.67;;
51122;SDS011;37162;41.724;13.346;2023-07-13T13:31:09;1.90;;;1.65;;
51122;SDS011;37162;41.724;13.346;2023-07-13T13:33:39;2.60;;;1.85;;
51122;SDS011;37162;41.724;13.346;2023-07-13T13:36:17;2.67;;;1.90;;
51122;SDS011;37162;41.724;13.346;2023-07-13T13:38:44;1.80;;;1.60;;
51122;SDS011;37162;41.724;13.346;2023-07-13T13:41:11;3.80;;;1.50;;
51122;SDS011;37162;41.724;13.346;2023-07-13T13:43:38;2.72;;;1.48;;
51122;SDS011;37162;41.724;13.346;2023-07-13T13:46:09;5.10;;;1.70;;
51122;SDS011;37162;41.724;13.346;2023-07-13T13:48:39;2.45;;;1.45;;
51122;SDS011;37162;41.724;13.346;2023-07-13T13:51:13;2.33;;;1.65;;
51122;SDS011;37162;41.724;13.346;2023-07-13T13:53:46;3.15;;;1.50;;
51122;SDS011;37162;41.724;13.346;2023-07-13T13:56:12;2.75;;;2.15;;
51122;SDS011;37162;41.724;13.346;2023-07-13T13:58:39;3.85;;;1.67;;
51122;SDS011;37162;41.724;13.346;2023-07-13T14:01:08;3.92;;;1.40;;
51122;SDS011;37162;41.724;13.346;2023-07-13T14:03:39;2.20;;;1.80;;
51122;SDS011;37162;41.724;13.346;2023-07-13T14:06:05;3.33;;;1.60;;
51122;SDS011;37162;41.724;13.346;2023-07-13T14:08:30;1.50;;;1.40;;
51122;SDS011;37162;41.724;13.346;2023-07-13T14:10:56;1.52;;;1.30;;
51122;SDS011;37162;41.724;13.346;2023-07-13T14:13:27;5.70;;;1.70;;
51122;SDS011;37162;41.724;13.346;2023-07-13T14:18:20;4.57;;;2.08;;
51122;SDS011;37162;41.724;13.346;2023-07-13T14:20:46;2.42;;;1.75;;
51122;SDS011;37162;41.724;13.346;2023-07-13T14:23:16;3.58;;;1.83;;
51122;SDS011;37162;41.724;13.346;2023-07-13T14:25:43;1.90;;;1.70;;
51122;SDS011;37162;41.724;13.346;2023-07-13T14:28:31;1.85;;;1.67;;
51122;SDS011;37162;41.724;13.346;2023-07-13T14:30:55;2.35;;;1.63;;
51122;SDS011;37162;41.724;13.346;2023-07-13T14:33:20;2.55;;;1.80;;
51122;SDS011;37162;41.724;13.346;2023-07-13T14:35:46;2.20;;;1.70;;
51122;SDS011;37162;41.724;13.346;2023-07-13T14:38:13;2.30;;;1.80;;
51122;SDS011;37162;41.724;13.346;2023-07-13T14:40:41;3.35;;;1.75;;
51122;SDS011;37162;41.724;13.346;2023-07-13T14:43:10;2.72;;;1.80;;
51122;SDS011;37162;41.724;13.346;2023-07-13T14:45:39;2.28;;;1.77;;
51122;SDS011;37162;41.724;13.346;2023-07-13T14:48:22;3.05;;;1.90;;
51122;SDS011;37162;41.724;13.346;2023-07-13T14:50:56;2.20;;;1.80;;
51122;SDS011;37162;41.724;13.346;2023-07-13T14:53:22;5.05;;;2.15;;
51122;SDS011;37162;41.724;13.346;2023-07-13T14:55:50;8.55;;;1.80;;
51122;SDS011;37162;41.724;13.346;2023-07-13T14:58:15;2.70;;;1.70;;
51122;SDS011;37162;41.724;13.346;2023-07-13T15:00:41;2.42;;;1.83;;
51122;SDS011;37162;41.724;13.346;2023-07-13T15:03:08;3.95;;;2.00;;
51122;SDS011;37162;41.724;13.346;2023-07-13T15:05:44;2.25;;;1.88;;
51122;SDS011;37162;41.724;13.346;2023-07-13T15:08:10;4.60;;;2.25;;
51122;SDS011;37162;41.724;13.346;2023-07-13T15:10:36;2.20;;;1.70;;
51122;SDS011;37162;41.724;13.346;2023-07-13T15:13:20;5.00;;;1.65;;
51122;SDS011;37162;41.724;13.346;2023-07-13T15:15:47;2.40;;;1.70;;
51122;SDS011;37162;41.724;13.346;2023-07-13T15:18:17;3.17;;;1.95;;
51122;SDS011;37162;41.724;13.346;2023-07-13T15:20:45;2.38;;;2.08;;
51122;SDS011;37162;41.724;13.346;2023-07-13T15:23:13;2.30;;;1.92;;
51122;SDS011;37162;41.724;13.346;2023-07-13T15:25:41;2.10;;;1.75;;
51122;SDS011;37162;41.724;13.346;2023-07-13T15:28:07;4.05;;;1.55;;
51122;SDS011;37162;41.724;13.346;2023-07-13T15:30:39;2.28;;;1.92;;
51122;SDS011;37162;41.724;13.346;2023-07-13T15:33:12;3.45;;;2.00;;
51122;SDS011;37162;41.724;13.346;2023-07-13T15:35:42;1.70;;;1.60;;
51122;SDS011;37162;41.724;13.346;2023-07-13T15:38:18;2.33;;;1.90;;
51122;SDS011;37162;41.724;13.346;2023-07-13T15:40:46;2.60;;;1.98;;